createdAt,value
2022-11-24T00:00:06.634Z,98616.13
2022-11-24T00:00:38.359Z,98623.34
2022-11-24T00:01:16.408Z,98611.09
2022-11-24T00:01:48.307Z,98624.53
2022-11-24T00:02:20.303Z,98614.56
2022-11-24T00:02:52.902Z,98626.16
2022-11-24T00:03:24.858Z,98619.13
2022-11-24T00:04:05.406Z,98612.56
2022-11-24T00:04:37.386Z,98615.56
2022-11-24T00:05:09.250Z,98613.59
2022-11-24T00:05:41.093Z,98621.31
2022-11-24T00:06:15.755Z,98627.66
2022-11-24T00:06:47.620Z,98619.72
2022-11-24T00:07:19.564Z,98621.53
2022-11-24T00:07:51.483Z,98618.94
2022-11-24T00:08:23.343Z,98624.91
2022-11-24T00:08:55.444Z,98620.75
2022-11-24T00:09:27.328Z,98624.75
2022-11-24T00:09:59.130Z,98618.53
2022-11-24T00:10:30.972Z,98627.69
2022-11-24T00:11:24.175Z,98626.75
2022-11-24T00:11:56.333Z,98614.97
2022-11-24T00:12:28.164Z,98619.72
2022-11-24T00:13:00.010Z,98619.72
2022-11-24T00:13:33.486Z,98625.06
2022-11-24T00:14:06.547Z,98624.06
2022-11-24T00:14:38.385Z,98624.88
2022-11-24T00:15:10.411Z,98628.63
2022-11-24T00:15:42.230Z,98622.22
2022-11-24T00:16:19.723Z,98615.44
2022-11-24T00:16:51.672Z,98632.50
2022-11-24T00:17:24.300Z,98631.56
2022-11-24T00:17:56.543Z,98627.19
2022-11-24T00:18:28.365Z,98635.56
2022-11-24T00:19:02.002Z,98627.44
2022-11-24T00:19:33.957Z,98624.84
2022-11-24T00:20:06.402Z,98627.00
2022-11-24T00:20:38.252Z,98627.75
2022-11-24T00:21:10.182Z,98625.38
2022-11-24T00:21:42.535Z,98625.75
2022-11-24T00:22:14.359Z,98615.75
2022-11-24T00:22:46.503Z,98627.50
2022-11-24T00:23:18.294Z,98626.47
2022-11-24T00:23:51.234Z,98626.12
2022-11-24T00:24:23.057Z,98626.91
2022-11-24T00:24:54.875Z,98632.31
2022-11-24T00:25:26.733Z,98626.91
2022-11-24T00:26:16.442Z,98627.31
2022-11-24T00:26:48.530Z,98630.06
2022-11-24T00:27:20.420Z,98632.00
2022-11-24T00:27:52.815Z,98625.41
2022-11-24T00:28:24.804Z,98636.37
2022-11-24T00:29:03.349Z,98630.84
2022-11-24T00:29:35.165Z,98633.72
2022-11-24T00:30:07.519Z,98632.94
2022-11-24T00:30:39.456Z,98628.91
2022-11-24T00:31:20.963Z,98627.66
2022-11-24T00:31:52.927Z,98630.84
2022-11-24T00:32:24.810Z,98629.66
2022-11-24T00:32:56.914Z,98638.03
2022-11-24T00:33:28.782Z,98636.47
2022-11-24T00:34:02.695Z,98637.41
2022-11-24T00:34:34.901Z,98635.63
2022-11-24T00:35:07.729Z,98635.97
2022-11-24T00:35:39.639Z,98637.94
2022-11-24T00:36:11.547Z,98636.41
2022-11-24T00:36:43.650Z,98643.66
2022-11-24T00:37:15.503Z,98646.88
2022-11-24T00:37:47.426Z,98638.47
2022-11-24T00:38:19.572Z,98641.69
2022-11-24T00:38:55.707Z,98636.87
2022-11-24T00:39:27.559Z,98644.81
2022-11-24T00:39:59.369Z,98640.81
2022-11-24T00:40:34.993Z,98640.22
2022-11-24T00:41:07.352Z,98641.84
2022-11-24T00:41:39.592Z,98641.66
2022-11-24T00:42:11.436Z,98641.22
2022-11-24T00:42:43.238Z,98637.44
2022-11-24T00:43:15.187Z,98641.84
2022-11-24T00:43:47.316Z,98640.62
2022-11-24T00:44:19.134Z,98645.19
2022-11-24T00:44:50.952Z,98642.97
2022-11-24T00:45:22.768Z,98647.16
2022-11-24T00:45:54.748Z,98645.56
2022-11-24T00:46:27.976Z,98649.53
2022-11-24T00:47:00.074Z,98644.81
2022-11-24T00:47:33.001Z,98645.66
2022-11-24T00:48:04.936Z,98646.03
2022-11-24T00:48:36.869Z,98647.19
2022-11-24T00:49:09.407Z,98642.81
2022-11-24T00:49:41.248Z,98649.22
2022-11-24T00:50:13.129Z,98641.69
2022-11-24T00:50:44.941Z,98648.84
2022-11-24T00:51:18.557Z,98647.19
2022-11-24T00:51:50.466Z,98651.87
2022-11-24T00:52:22.279Z,98655.28
2022-11-24T00:52:54.098Z,98652.69
2022-11-24T00:53:26.388Z,98649.66
2022-11-24T00:53:59.497Z,98650.41
2022-11-24T00:54:31.915Z,98654.03
2022-11-24T00:55:04.189Z,98647.62
2022-11-24T00:55:36.026Z,98656.38
2022-11-24T00:56:08.746Z,98660.13
2022-11-24T00:56:40.631Z,98660.13
2022-11-24T00:57:12.510Z,98654.56
2022-11-24T00:57:44.324Z,98655.75
2022-11-24T00:58:16.156Z,98654.72
2022-11-24T00:58:47.978Z,98661.13
2022-11-24T00:59:19.835Z,98655.00
2022-11-24T00:59:51.947Z,98660.34
2022-11-24T01:00:23.806Z,98660.59
2022-11-24T01:01:01.381Z,98662.78
2022-11-24T01:01:33.369Z,98661.97
2022-11-24T01:02:05.293Z,98665.16
2022-11-24T01:02:37.353Z,98668.38
2022-11-24T01:03:09.504Z,98667.97
2022-11-24T01:03:42.462Z,98673.13
2022-11-24T01:04:14.996Z,98662.34
2022-11-24T01:04:46.796Z,98663.12
2022-11-24T01:05:19.271Z,98669.34
2022-11-24T01:05:51.145Z,98670.91
2022-11-24T01:06:25.199Z,98666.72
2022-11-24T01:06:57.072Z,98665.09
2022-11-24T01:07:28.922Z,98665.34
2022-11-24T01:08:00.756Z,98663.72
2022-11-24T01:08:33.316Z,98671.50
2022-11-24T01:09:05.295Z,98665.53
2022-11-24T01:09:37.818Z,98665.34
2022-11-24T01:10:09.917Z,98659.56
2022-11-24T01:10:42.239Z,98665.78
2022-11-24T01:11:16.319Z,98663.38
2022-11-24T01:12:04.016Z,98668.81
2022-11-24T01:12:35.927Z,98665.16
2022-11-24T01:13:07.794Z,98668.97
2022-11-24T01:13:41.077Z,98664.19
2022-11-24T01:14:12.892Z,98669.38
2022-11-24T01:14:44.753Z,98663.22
2022-11-24T01:15:16.659Z,98660.47
2022-11-24T01:15:48.848Z,98666.44
2022-11-24T01:16:31.521Z,98671.69
2022-11-24T01:17:03.685Z,98669.66
2022-11-24T01:17:35.543Z,98660.63
2022-11-24T01:18:07.397Z,98666.41
2022-11-24T01:18:39.357Z,98664.66
2022-11-24T01:19:11.177Z,98666.25
2022-11-24T01:19:43.033Z,98663.25
2022-11-24T01:20:15.172Z,98670.84
2022-11-24T01:20:46.989Z,98669.44
2022-11-24T01:21:20.206Z,98671.00
2022-11-24T01:21:52.396Z,98667.66
2022-11-24T01:22:26.443Z,98665.13
2022-11-24T01:22:58.283Z,98672.44
2022-11-24T01:23:30.216Z,98668.00
2022-11-24T01:24:02.455Z,98672.44
2022-11-24T01:24:34.407Z,98666.44
2022-11-24T01:25:07.218Z,98669.66
2022-11-24T01:25:40.096Z,98665.22
2022-11-24T01:26:15.007Z,98672.19
2022-11-24T01:26:47.190Z,98670.75
2022-11-24T01:27:19.031Z,98667.16
2022-11-24T01:27:50.932Z,98665.41
2022-11-24T01:28:22.791Z,98671.19
2022-11-24T01:28:56.500Z,98666.78
2022-11-24T01:29:28.483Z,98672.19
2022-11-24T01:30:00.468Z,98669.00
2022-11-24T01:30:32.695Z,98677.81
2022-11-24T01:31:07.171Z,98670.59
2022-11-24T01:31:39.406Z,98670.97
2022-11-24T01:32:11.545Z,98674.94
2022-11-24T01:32:43.381Z,98676.09
2022-11-24T01:33:15.235Z,98677.09
2022-11-24T01:33:47.075Z,98678.00
2022-11-24T01:34:19.185Z,98680.41
2022-11-24T01:34:51.054Z,98674.37
2022-11-24T01:35:22.896Z,98674.78
2022-11-24T01:35:54.723Z,98671.59
2022-11-24T01:36:26.666Z,98675.37
2022-11-24T01:36:58.464Z,98675.94
2022-11-24T01:37:30.671Z,98675.75
2022-11-24T01:38:02.488Z,98674.53
2022-11-24T01:38:34.314Z,98674.87
2022-11-24T01:39:06.167Z,98673.91
2022-11-24T01:39:38.000Z,98676.06
2022-11-24T01:40:10.665Z,98675.44
2022-11-24T01:40:42.564Z,98676.84
2022-11-24T01:41:17.960Z,98670.72
2022-11-24T01:41:49.851Z,98675.13
2022-11-24T01:42:21.730Z,98671.97
2022-11-24T01:42:54.059Z,98674.37
2022-11-24T01:43:25.918Z,98676.16
2022-11-24T01:43:57.854Z,98681.19
2022-11-24T01:44:31.288Z,98670.56
2022-11-24T01:45:40.613Z,98670.75
2022-11-24T01:46:31.085Z,98677.13
2022-11-24T01:47:13.554Z,98681.53
2022-11-24T01:47:45.448Z,98675.91
2022-11-24T01:48:35.065Z,98679.91
2022-11-24T01:49:33.860Z,98676.94
2022-11-24T01:50:13.335Z,98671.34
2022-11-24T01:50:46.426Z,98675.16
2022-11-24T01:51:23.812Z,98676.19
2022-11-24T01:52:01.417Z,98683.19
2022-11-24T01:52:51.553Z,98682.41
2022-11-24T01:53:24.506Z,98683.00
2022-11-24T01:54:20.261Z,98678.97
2022-11-24T01:54:59.602Z,98680.50
2022-11-24T01:55:36.514Z,98683.31
2022-11-24T01:56:09.438Z,98685.31
2022-11-24T01:56:45.806Z,98685.91
2022-11-24T01:57:23.705Z,98688.13
2022-11-24T01:58:05.209Z,98687.16
2022-11-24T01:58:39.867Z,98683.56
2022-11-24T01:59:14.465Z,98692.38
2022-11-24T01:59:48.474Z,98685.97
2022-11-24T02:00:21.730Z,98689.13
2022-11-24T02:00:54.334Z,98687.16
2022-11-24T02:01:26.390Z,98685.94
2022-11-24T02:01:58.478Z,98690.50
2022-11-24T02:02:30.715Z,98689.91
2022-11-24T02:03:02.754Z,98686.72
2022-11-24T02:03:38.263Z,98691.91
2022-11-24T02:04:17.729Z,98692.66
2022-11-24T02:04:51.249Z,98688.69
2022-11-24T02:05:26.190Z,98688.50
2022-11-24T02:06:08.080Z,98687.06
2022-11-24T02:06:42.710Z,98693.28
2022-11-24T02:07:15.065Z,98692.25
2022-11-24T02:07:48.020Z,98689.41
2022-11-24T02:08:49.155Z,98688.25
2022-11-24T02:09:26.214Z,98687.50
2022-11-24T02:10:03.960Z,98692.53
2022-11-24T02:10:36.966Z,98687.12
2022-11-24T02:11:08.891Z,98688.34
2022-11-24T02:11:41.733Z,98686.31
2022-11-24T02:12:13.663Z,98685.09
2022-11-24T02:12:47.713Z,98689.34
2022-11-24T02:13:19.936Z,98690.28
2022-11-24T02:13:54.248Z,98692.69
2022-11-24T02:14:27.523Z,98692.69
2022-11-24T02:14:59.758Z,98695.66
2022-11-24T02:15:32.457Z,98696.03
2022-11-24T02:16:07.657Z,98691.91
2022-11-24T02:16:41.609Z,98691.50
2022-11-24T02:17:13.479Z,98688.09
2022-11-24T02:17:45.471Z,98695.88
2022-11-24T02:18:17.304Z,98689.06
2022-11-24T02:18:49.475Z,98685.50
2022-11-24T02:19:27.059Z,98693.47
2022-11-24T02:20:01.910Z,98690.25
2022-11-24T02:20:34.197Z,98687.06
2022-11-24T02:21:07.379Z,98678.75
2022-11-24T02:21:39.250Z,98685.16
2022-11-24T02:22:31.239Z,98681.22
2022-11-24T02:23:31.740Z,98683.78
2022-11-24T02:24:30.319Z,98688.41
2022-11-24T02:25:10.030Z,98686.97
2022-11-24T02:25:50.118Z,98682.75
2022-11-24T02:26:30.982Z,98681.97
2022-11-24T02:27:03.785Z,98684.56
2022-11-24T02:27:36.357Z,98680.22
2022-11-24T02:28:13.632Z,98675.59
2022-11-24T02:28:46.214Z,98680.75
2022-11-24T02:29:19.859Z,98686.56
2022-11-24T02:29:52.147Z,98680.75
2022-11-24T02:30:24.604Z,98682.72
2022-11-24T02:30:58.577Z,98679.97
2022-11-24T02:31:30.717Z,98677.63
2022-11-24T02:32:06.782Z,98674.63
2022-11-24T02:32:41.394Z,98677.81
2022-11-24T02:33:13.828Z,98677.63
2022-11-24T02:33:45.765Z,98675.56
2022-11-24T02:34:17.635Z,98680.41
2022-11-24T02:34:49.479Z,98682.75
2022-11-24T02:35:21.502Z,98678.97
2022-11-24T02:35:53.933Z,98681.94
2022-11-24T02:36:25.839Z,98680.72
2022-11-24T02:36:57.696Z,98675.53
2022-11-24T02:37:29.606Z,98678.53
2022-11-24T02:38:01.431Z,98679.72
2022-11-24T02:38:35.401Z,98673.91
2022-11-24T02:39:15.101Z,98674.09
2022-11-24T02:39:46.914Z,98681.87
2022-11-24T02:40:25.105Z,98678.69
2022-11-24T02:41:00.551Z,98672.34
2022-11-24T02:41:32.442Z,98673.94
2022-11-24T02:42:08.997Z,98681.72
2022-11-24T02:42:44.981Z,98679.75
2022-11-24T02:43:23.349Z,98682.50
2022-11-24T02:43:58.408Z,98679.91
2022-11-24T02:44:37.961Z,98681.13
2022-11-24T02:45:11.971Z,98683.94
2022-11-24T02:45:43.850Z,98681.13
2022-11-24T02:46:16.109Z,98684.31
2022-11-24T02:46:48.006Z,98686.31
2022-11-24T02:47:19.846Z,98684.91
2022-11-24T02:47:51.711Z,98685.50
2022-11-24T02:48:23.911Z,98687.12
2022-11-24T02:48:55.788Z,98684.56
2022-11-24T02:49:27.591Z,98679.38
2022-11-24T02:49:59.431Z,98679.97
2022-11-24T02:50:31.258Z,98679.19
2022-11-24T02:51:03.687Z,98682.56
2022-11-24T02:51:35.820Z,98677.38
2022-11-24T02:52:08.458Z,98680.72
2022-11-24T02:52:40.285Z,98680.31
2022-11-24T02:53:12.176Z,98679.88
2022-11-24T02:53:45.006Z,98683.06
2022-11-24T02:54:16.820Z,98680.84
2022-11-24T02:54:48.699Z,98688.69
2022-11-24T02:55:20.583Z,98683.50
2022-11-24T02:55:53.159Z,98681.53
2022-11-24T02:56:26.778Z,98687.66
2022-11-24T02:56:59.348Z,98688.69
2022-11-24T02:57:31.389Z,98683.50
2022-11-24T02:58:03.280Z,98686.09
2022-11-24T02:58:35.234Z,98688.25
2022-11-24T02:59:07.070Z,98688.25
2022-11-24T02:59:38.980Z,98685.06
2022-11-24T03:00:11.681Z,98692.25
2022-11-24T03:00:43.526Z,98690.84
2022-11-24T03:01:15.460Z,98686.12
2022-11-24T03:01:47.437Z,98686.72
2022-11-24T03:02:19.654Z,98685.84
2022-11-24T03:02:51.645Z,98693.88
2022-11-24T03:03:24.202Z,98686.75
2022-11-24T03:03:56.037Z,98687.94
2022-11-24T03:04:27.837Z,98684.41
2022-11-24T03:04:59.698Z,98684.81
2022-11-24T03:05:31.512Z,98691.97
2022-11-24T03:06:03.374Z,98690.97
2022-11-24T03:06:35.206Z,98680.78
2022-11-24T03:07:07.273Z,98688.19
2022-11-24T03:07:39.535Z,98681.97
2022-11-24T03:08:12.960Z,98690.94
2022-11-24T03:08:44.852Z,98685.94
2022-11-24T03:09:16.675Z,98680.16
2022-11-24T03:09:48.485Z,98683.56
2022-11-24T03:10:20.496Z,98689.50
2022-11-24T03:10:52.381Z,98687.50
2022-11-24T03:11:24.256Z,98683.72
2022-11-24T03:11:56.145Z,98676.34
2022-11-24T03:12:28.026Z,98687.75
2022-11-24T03:13:00.178Z,98685.16
2022-11-24T03:13:31.996Z,98683.19
2022-11-24T03:14:04.861Z,98682.56
2022-11-24T03:14:36.943Z,98681.94
2022-11-24T03:15:09.333Z,98687.34
2022-11-24T03:15:41.338Z,98680.31
2022-11-24T03:16:13.225Z,98687.69
2022-11-24T03:16:45.075Z,98684.31
2022-11-24T03:17:16.976Z,98688.69
2022-11-24T03:17:48.786Z,98680.31
2022-11-24T03:18:20.911Z,98683.50
2022-11-24T03:18:53.486Z,98686.25
2022-11-24T03:19:25.334Z,98679.88
2022-11-24T03:20:03.006Z,98686.16
2022-11-24T03:20:36.314Z,98688.97
2022-11-24T03:21:08.208Z,98687.59
2022-11-24T03:21:40.050Z,98691.59
2022-11-24T03:22:13.484Z,98690.37
2022-11-24T03:22:45.321Z,98687.94
2022-11-24T03:23:17.188Z,98689.56
2022-11-24T03:23:49.574Z,98691.13
2022-11-24T03:24:21.520Z,98693.53
2022-11-24T03:24:53.407Z,98687.34
2022-11-24T03:25:25.360Z,98692.88
2022-11-24T03:26:08.038Z,98690.69
2022-11-24T03:26:39.960Z,98691.84
2022-11-24T03:27:11.787Z,98690.63
2022-11-24T03:27:44.038Z,98693.44
2022-11-24T03:28:16.091Z,98694.50
2022-11-24T03:28:48.027Z,98688.72
2022-11-24T03:29:20.194Z,98690.69
2022-11-24T03:29:52.054Z,98693.06
2022-11-24T03:30:23.977Z,98699.06
2022-11-24T03:30:55.829Z,98695.91
2022-11-24T03:31:27.961Z,98692.34
2022-11-24T03:32:00.275Z,98687.59
2022-11-24T03:32:32.081Z,98692.72
2022-11-24T03:33:05.093Z,98692.69
2022-11-24T03:33:37.763Z,98691.09
2022-11-24T03:34:09.983Z,98693.13
2022-11-24T03:34:42.102Z,98701.47
2022-11-24T03:35:13.948Z,98694.25
2022-11-24T03:35:46.071Z,98705.41
2022-11-24T03:36:18.706Z,98706.59
2022-11-24T03:36:50.790Z,98698.81
2022-11-24T03:37:22.662Z,98701.00
2022-11-24T03:37:54.502Z,98706.25
2022-11-24T03:38:26.327Z,98704.25
2022-11-24T03:38:58.171Z,98701.25
2022-11-24T03:39:30.063Z,98703.47
2022-11-24T03:40:02.176Z,98699.63
2022-11-24T03:40:34.059Z,98703.41
2022-11-24T03:41:05.943Z,98701.81
2022-11-24T03:41:37.842Z,98700.03
2022-11-24T03:42:09.761Z,98703.84
2022-11-24T03:42:41.608Z,98700.03
2022-11-24T03:43:13.438Z,98697.03
2022-11-24T03:43:45.250Z,98698.66
2022-11-24T03:44:17.996Z,98701.66
2022-11-24T03:44:49.968Z,98700.03
2022-11-24T03:45:45.047Z,98702.91
2022-11-24T03:46:14.443Z,98705.66
2022-11-24T03:46:46.404Z,98703.47
2022-11-24T03:47:18.257Z,98705.31
2022-11-24T03:47:51.800Z,98710.09
2022-11-24T03:48:23.609Z,98710.31
2022-11-24T03:48:55.433Z,98710.06
2022-11-24T03:49:27.315Z,98710.84
2022-11-24T03:49:59.172Z,98713.00
2022-11-24T03:50:31.287Z,98707.88
2022-11-24T03:51:03.353Z,98711.47
2022-11-24T03:51:35.197Z,98707.06
2022-11-24T03:52:08.360Z,98703.69
2022-11-24T03:52:40.350Z,98711.47
2022-11-24T03:53:12.257Z,98719.06
2022-11-24T03:53:44.083Z,98718.03
2022-11-24T03:54:15.960Z,98710.25
2022-11-24T03:54:47.860Z,98712.22
2022-11-24T03:55:19.687Z,98716.22
2022-11-24T03:55:52.084Z,98719.06
2022-11-24T03:56:23.899Z,98715.88
2022-11-24T03:56:56.017Z,98713.44
2022-11-24T03:57:27.814Z,98715.78
2022-11-24T03:57:59.693Z,98716.22
2022-11-24T03:58:31.567Z,98720.63
2022-11-24T03:59:03.499Z,98717.53
2022-11-24T03:59:35.328Z,98722.72
2022-11-24T04:00:08.072Z,98712.31
2022-11-24T04:00:40.465Z,98722.63
2022-11-24T04:01:12.348Z,98722.47
2022-11-24T04:01:44.237Z,98721.06
2022-11-24T04:02:16.726Z,98722.63
2022-11-24T04:02:48.781Z,98721.81
2022-11-24T04:03:21.166Z,98731.59
2022-11-24T04:03:53.039Z,98715.88
2022-11-24T04:04:24.882Z,98723.47
2022-11-24T04:04:56.802Z,98729.91
2022-11-24T04:05:28.675Z,98728.31
2022-11-24T04:06:00.931Z,98724.69
2022-11-24T04:06:32.787Z,98727.25
2022-11-24T04:07:04.595Z,98728.47
2022-11-24T04:07:36.520Z,98732.50
2022-11-24T04:08:08.751Z,98727.47
2022-11-24T04:08:40.593Z,98724.50
2022-11-24T04:09:12.425Z,98726.31
2022-11-24T04:09:45.338Z,98728.91
2022-11-24T04:10:17.227Z,98735.09
2022-11-24T04:10:51.303Z,98725.69
2022-11-24T04:11:42.267Z,98725.88
2022-11-24T04:12:32.678Z,98725.28
2022-11-24T04:13:10.860Z,98730.69
2022-11-24T04:13:42.724Z,98728.66
2022-11-24T04:14:14.725Z,98730.28
2022-11-24T04:14:46.605Z,98730.47
2022-11-24T04:15:19.661Z,98731.84
2022-11-24T04:15:52.016Z,98735.44
2022-11-24T04:16:24.268Z,98734.28
2022-11-24T04:16:56.175Z,98730.66
2022-11-24T04:17:28.456Z,98727.31
2022-11-24T04:18:00.276Z,98734.63
2022-11-24T04:18:32.238Z,98730.84
2022-11-24T04:19:04.107Z,98731.25
2022-11-24T04:19:35.929Z,98736.28
2022-11-24T04:20:08.734Z,98726.72
2022-11-24T04:20:41.412Z,98735.87
2022-11-24T04:21:13.271Z,98726.09
2022-11-24T04:21:45.418Z,98737.69
2022-11-24T04:22:17.906Z,98730.28
2022-11-24T04:22:51.842Z,98730.66
2022-11-24T04:23:23.685Z,98739.22
2022-11-24T04:23:55.522Z,98740.50
2022-11-24T04:24:27.367Z,98741.72
2022-11-24T04:24:59.175Z,98737.16
2022-11-24T04:25:31.151Z,98739.50
2022-11-24T04:26:02.971Z,98733.94
2022-11-24T04:26:34.940Z,98734.34
2022-11-24T04:27:07.012Z,98738.78
2022-11-24T04:27:39.330Z,98737.38
2022-11-24T04:28:11.221Z,98740.53
2022-11-24T04:28:43.041Z,98739.91
2022-11-24T04:29:14.874Z,98745.53
2022-11-24T04:29:46.742Z,98742.13
2022-11-24T04:30:19.519Z,98746.13
2022-11-24T04:30:51.464Z,98741.91
2022-11-24T04:31:23.396Z,98743.72
2022-11-24T04:31:55.270Z,98745.09
2022-11-24T04:32:27.915Z,98750.87
2022-11-24T04:32:59.852Z,98754.06
2022-11-24T04:33:31.935Z,98751.25
2022-11-24T04:34:04.048Z,98752.28
2022-11-24T04:34:36.670Z,98759.44
2022-11-24T04:35:08.829Z,98753.31
2022-11-24T04:35:40.752Z,98755.12
2022-11-24T04:36:12.633Z,98755.91
2022-11-24T04:36:44.500Z,98755.28
2022-11-24T04:37:16.445Z,98759.25
2022-11-24T04:37:48.610Z,98758.84
2022-11-24T04:39:24.540Z,98754.88
2022-11-24T04:39:25.984Z,98757.44
2022-11-24T04:39:58.029Z,98753.06
2022-11-24T04:40:30.226Z,98757.28
2022-11-24T04:41:03.417Z,98758.31
2022-11-24T04:41:35.264Z,98756.53
2022-11-24T04:42:07.100Z,98757.72
2022-11-24T04:42:38.955Z,98754.31
2022-11-24T04:43:12.083Z,98763.50
2022-11-24T04:43:43.937Z,98760.91
2022-11-24T04:44:15.832Z,98763.84
2022-11-24T04:44:47.726Z,98761.84
2022-11-24T04:45:19.545Z,98757.72
2022-11-24T04:45:51.412Z,98759.69
2022-11-24T04:46:23.257Z,98756.50
2022-11-24T04:46:55.215Z,98762.50
2022-11-24T04:47:27.758Z,98760.31
2022-11-24T04:47:59.612Z,98757.13
2022-11-24T04:48:31.753Z,98762.72
2022-11-24T04:49:03.781Z,98759.31
2022-11-24T04:49:35.607Z,98760.13
2022-11-24T04:50:09.093Z,98761.09
2022-11-24T04:50:41.020Z,98764.69
2022-11-24T04:51:15.139Z,98763.88
2022-11-24T04:51:47.168Z,98759.50
2022-11-24T04:52:20.318Z,98764.25
2022-11-24T04:52:52.639Z,98765.25
2022-11-24T04:53:24.450Z,98763.12
2022-11-24T04:53:56.597Z,98761.09
2022-11-24T04:54:28.422Z,98761.13
2022-11-24T04:55:00.315Z,98759.91
2022-11-24T04:55:32.158Z,98753.94
2022-11-24T04:56:07.291Z,98766.28
2022-11-24T04:56:40.208Z,98761.91
2022-11-24T04:57:32.281Z,98763.09
2022-11-24T04:58:04.127Z,98763.31
2022-11-24T04:58:36.222Z,98767.09
2022-11-24T04:59:11.878Z,98762.69
2022-11-24T04:59:44.190Z,98766.69
2022-11-24T05:00:16.832Z,98768.09
2022-11-24T05:00:48.916Z,98768.69
2022-11-24T05:01:20.785Z,98761.88
2022-11-24T05:01:52.725Z,98766.09
2022-11-24T05:02:24.665Z,98774.28
2022-11-24T05:02:56.768Z,98771.47
2022-11-24T05:03:28.598Z,98774.87
2022-11-24T05:04:00.459Z,98780.66
2022-11-24T05:04:33.001Z,98782.25
2022-11-24T05:05:06.612Z,98777.84
2022-11-24T05:05:38.469Z,98781.47
2022-11-24T05:06:10.298Z,98780.22
2022-11-24T05:06:42.299Z,98784.25
2022-11-24T05:07:18.882Z,98780.03
2022-11-24T05:07:51.323Z,98780.28
2022-11-24T05:08:23.209Z,98793.81
2022-11-24T05:08:55.082Z,98784.62
2022-11-24T05:09:47.910Z,98788.22
2022-11-24T05:10:37.406Z,98787.44
2022-11-24T05:11:09.272Z,98797.00
2022-11-24T05:11:41.101Z,98793.81
2022-11-24T05:12:12.900Z,98789.03
2022-11-24T05:12:49.951Z,98788.03
2022-11-24T05:13:23.147Z,98785.84
2022-11-24T05:13:55.052Z,98797.00
2022-11-24T05:14:28.358Z,98799.00
2022-11-24T05:15:01.914Z,98795.44
2022-11-24T05:15:34.194Z,98794.00
2022-11-24T05:16:06.360Z,98796.00
2022-11-24T05:16:38.379Z,98799.78
2022-11-24T05:17:10.279Z,98800.97
2022-11-24T05:17:42.113Z,98800.62
2022-11-24T05:18:17.474Z,98805.97
2022-11-24T05:18:49.390Z,98801.59
2022-11-24T05:19:21.191Z,98806.16
2022-11-24T05:19:53.031Z,98805.37
2022-11-24T05:20:25.567Z,98805.97
2022-11-24T05:20:58.780Z,98811.16
2022-11-24T05:21:30.589Z,98815.34
2022-11-24T05:22:02.410Z,98811.13
2022-11-24T05:22:34.512Z,98810.94
2022-11-24T05:23:08.345Z,98809.38
2022-11-24T05:23:40.231Z,98810.75
2022-11-24T05:24:12.100Z,98805.81
2022-11-24T05:24:43.897Z,98809.97
2022-11-24T05:25:15.837Z,98816.12
2022-11-24T05:25:48.090Z,98815.94
2022-11-24T05:26:20.503Z,98815.12
2022-11-24T05:26:52.365Z,98817.72
2022-11-24T05:27:24.361Z,98817.28
2022-11-24T05:28:02.811Z,98820.31
2022-11-24T05:28:34.700Z,98820.53
2022-11-24T05:29:06.590Z,98813.59
2022-11-24T05:29:38.472Z,98821.53
2022-11-24T05:30:11.537Z,98818.53
2022-11-24T05:30:44.216Z,98824.75
2022-11-24T05:31:16.127Z,98819.94
2022-11-24T05:31:48.430Z,98828.72
2022-11-24T05:32:20.327Z,98824.31
2022-11-24T05:32:52.187Z,98825.31
2022-11-24T05:33:24.149Z,98830.31
2022-11-24T05:33:56.046Z,98826.53
2022-11-24T05:34:28.372Z,98824.94
2022-11-24T05:35:02.200Z,98822.16
2022-11-24T05:35:35.559Z,98826.72
2022-11-24T05:36:07.815Z,98824.75
2022-11-24T05:36:54.739Z,98828.50
2022-11-24T05:37:28.420Z,98827.31
2022-11-24T05:38:00.214Z,98831.31
2022-11-24T05:38:32.944Z,98829.47
2022-11-24T05:39:04.822Z,98832.31
2022-11-24T05:39:36.981Z,98833.31
2022-11-24T05:40:09.179Z,98843.25
2022-11-24T05:40:41.592Z,98839.28
2022-11-24T05:41:13.378Z,98837.28
2022-11-24T05:41:45.531Z,98843.69
2022-11-24T05:42:35.895Z,98842.06
2022-11-24T05:43:15.542Z,98839.28
2022-11-24T05:43:47.368Z,98843.69
2022-11-24T05:44:19.211Z,98843.69
2022-11-24T05:44:51.798Z,98841.66
2022-11-24T05:45:23.825Z,98844.47
2022-11-24T05:45:59.623Z,98841.66
2022-11-24T05:46:31.491Z,98848.44
2022-11-24T05:47:03.430Z,98841.28
2022-11-24T05:47:36.003Z,98847.25
2022-11-24T05:48:10.669Z,98841.66
2022-11-24T05:48:42.527Z,98852.66
2022-11-24T05:49:14.414Z,98843.28
2022-11-24T05:49:46.381Z,98853.25
2022-11-24T05:50:20.695Z,98853.44
2022-11-24T05:50:58.847Z,98857.22
2022-11-24T05:51:30.894Z,98854.84
2022-11-24T05:52:02.749Z,98854.06
2022-11-24T05:52:35.146Z,98856.03
2022-11-24T05:53:10.700Z,98856.84
2022-11-24T05:53:42.828Z,98856.81
2022-11-24T05:54:14.788Z,98863.59
2022-11-24T05:54:46.613Z,98861.22
2022-11-24T05:55:19.616Z,98859.22
2022-11-24T05:55:51.537Z,98867.59
2022-11-24T05:56:23.434Z,98868.81
2022-11-24T05:56:56.396Z,98867.19
2022-11-24T05:57:28.457Z,98863.63
2022-11-24T05:58:02.371Z,98870.00
2022-11-24T05:58:34.247Z,98863.41
2022-11-24T05:59:09.799Z,98867.38
2022-11-24T05:59:42.033Z,98862.81
2022-11-24T06:00:15.124Z,98872.19
2022-11-24T06:00:47.674Z,98866.37
2022-11-24T06:01:19.850Z,98876.97
2022-11-24T06:01:51.802Z,98859.22
2022-11-24T06:02:23.783Z,98867.00
2022-11-24T06:02:58.081Z,98872.78
2022-11-24T06:03:29.954Z,98867.38
2022-11-24T06:04:01.843Z,98860.81
2022-11-24T06:04:33.957Z,98867.38
2022-11-24T06:05:06.169Z,98862.22
2022-11-24T06:05:38.315Z,98868.59
2022-11-24T06:06:10.852Z,98868.38
2022-11-24T06:06:42.883Z,98862.62
2022-11-24T06:07:15.105Z,98864.59
2022-11-24T06:07:47.087Z,98871.19
2022-11-24T06:08:18.960Z,98869.78
2022-11-24T06:08:50.827Z,98872.97
2022-11-24T06:09:22.823Z,98870.78
2022-11-24T06:09:54.672Z,98868.81
2022-11-24T06:10:26.902Z,98867.38
2022-11-24T06:11:20.515Z,98865.44
2022-11-24T06:11:52.682Z,98862.84
2022-11-24T06:12:24.518Z,98864.00
2022-11-24T06:12:56.592Z,98873.22
2022-11-24T06:13:28.489Z,98868.59
2022-11-24T06:14:00.528Z,98868.81
2022-11-24T06:14:32.946Z,98869.59
2022-11-24T06:15:05.431Z,98869.19
2022-11-24T06:15:37.811Z,98869.59
2022-11-24T06:16:10.760Z,98869.19
2022-11-24T06:16:42.723Z,98876.00
2022-11-24T06:17:14.893Z,98879.38
2022-11-24T06:17:53.789Z,98877.97
2022-11-24T06:18:25.616Z,98880.34
2022-11-24T06:18:57.472Z,98882.34
2022-11-24T06:19:29.352Z,98878.75
2022-11-24T06:20:01.186Z,98882.94
2022-11-24T06:20:33.298Z,98879.38
2022-11-24T06:21:11.222Z,98889.31
2022-11-24T06:21:43.549Z,98884.38
2022-11-24T06:22:16.014Z,98882.75
2022-11-24T06:22:48.397Z,98880.34
2022-11-24T06:23:20.215Z,98877.16
2022-11-24T06:23:52.083Z,98883.94
2022-11-24T06:24:24.079Z,98879.38
2022-11-24T06:24:55.894Z,98890.72
2022-11-24T06:25:29.224Z,98895.13
2022-11-24T06:26:01.709Z,98893.94
2022-11-24T06:26:33.699Z,98897.09
2022-11-24T06:27:05.533Z,98886.38
2022-11-24T06:27:37.705Z,98887.34
2022-11-24T06:28:09.526Z,98891.94
2022-11-24T06:28:41.683Z,98887.16
2022-11-24T06:29:13.580Z,98886.38
2022-11-24T06:29:46.295Z,98884.56
2022-11-24T06:30:18.239Z,98885.16
2022-11-24T06:30:50.078Z,98886.94
2022-11-24T06:31:21.947Z,98886.53
2022-11-24T06:31:53.863Z,98891.69